sensor_id;sensor_type;location;lat;lon;timestamp;P1;durP1;ratioP1;P2;durP2;ratioP2
6787;SDS011;3431;47.966;10.268;2022-11-13T00:00:00;8.65;;;4.20;;
6787;SDS011;3431;47.966;10.268;2022-11-13T00:00:42;5.20;;;3.83;;
6787;SDS011;3431;47.966;10.268;2022-11-13T00:01:22;5.22;;;3.67;;
6787;SDS011;3431;47.966;10.268;2022-11-13T00:02:04;4.68;;;3.88;;
6787;SDS011;3431;47.966;10.268;2022-11-13T00:02:44;9.93;;;4.75;;
6787;SDS011;3431;47.966;10.268;2022-11-13T00:03:24;5.00;;;4.30;;
6787;SDS011;3431;47.966;10.268;2022-11-13T00:04:09;6.75;;;4.47;;
6787;SDS011;3431;47.966;10.268;2022-11-13T00:04:49;7.70;;;4.15;;
6787;SDS011;3431;47.966;10.268;2022-11-13T00:05:30;5.30;;;3.80;;
6787;SDS011;3431;47.966;10.268;2022-11-13T00:06:10;4.38;;;3.92;;
6787;SDS011;3431;47.966;10.268;2022-11-13T00:06:52;10.50;;;4.70;;
6787;SDS011;3431;47.966;10.268;2022-11-13T00:07:33;6.25;;;4.10;;
6787;SDS011;3431;47.966;10.268;2022-11-13T00:08:14;4.40;;;3.70;;
6787;SDS011;3431;47.966;10.268;2022-11-13T00:08:54;6.22;;;4.07;;
6787;SDS011;3431;47.966;10.268;2022-11-13T00:09:35;4.77;;;4.10;;
6787;SDS011;3431;47.966;10.268;2022-11-13T00:10:15;13.35;;;3.83;;
6787;SDS011;3431;47.966;10.268;2022-11-13T00:10:58;6.80;;;4.40;;
6787;SDS011;3431;47.966;10.268;2022-11-13T00:11:40;5.28;;;3.90;;
6787;SDS011;3431;47.966;10.268;2022-11-13T00:12:20;4.03;;;3.63;;
6787;SDS011;3431;47.966;10.268;2022-11-13T00:13:01;3.80;;;3.40;;
6787;SDS011;3431;47.966;10.268;2022-11-13T00:13:42;8.10;;;4.10;;
6787;SDS011;3431;47.966;10.268;2022-11-13T00:14:23;5.20;;;3.88;;
6787;SDS011;3431;47.966;10.268;2022-11-13T00:15:03;7.38;;;3.83;;
6787;SDS011;3431;47.966;10.268;2022-11-13T00:15:56;5.78;;;4.13;;
6787;SDS011;3431;47.966;10.268;2022-11-13T00:16:36;6.35;;;3.67;;
6787;SDS011;3431;47.966;10.268;2022-11-13T00:17:18;8.25;;;4.20;;
6787;SDS011;3431;47.966;10.268;2022-11-13T00:17:59;4.38;;;3.97;;
6787;SDS011;3431;47.966;10.268;2022-11-13T00:18:39;6.50;;;3.60;;
6787;SDS011;3431;47.966;10.268;2022-11-13T00:19:20;7.88;;;3.67;;
6787;SDS011;3431;47.966;10.268;2022-11-13T00:20:00;5.75;;;3.75;;
6787;SDS011;3431;47.966;10.268;2022-11-13T00:20:42;5.60;;;3.70;;
6787;SDS011;3431;47.966;10.268;2022-11-13T00:21:22;4.28;;;3.42;;
6787;SDS011;3431;47.966;10.268;2022-11-13T00:22:05;8.02;;;3.63;;
6787;SDS011;3431;47.966;10.268;2022-11-13T00:22:45;4.93;;;3.92;;
6787;SDS011;3431;47.966;10.268;2022-11-13T00:23:25;9.55;;;3.90;;
6787;SDS011;3431;47.966;10.268;2022-11-13T00:24:06;8.32;;;3.80;;
6787;SDS011;3431;47.966;10.268;2022-11-13T00:24:47;6.45;;;3.58;;
6787;SDS011;3431;47.966;10.268;2022-11-13T00:25:28;5.78;;;3.63;;
6787;SDS011;3431;47.966;10.268;2022-11-13T00:26:08;4.80;;;3.70;;
6787;SDS011;3431;47.966;10.268;2022-11-13T00:26:51;8.57;;;3.63;;
6787;SDS011;3431;47.966;10.268;2022-11-13T00:27:31;4.40;;;3.20;;
6787;SDS011;3431;47.966;10.268;2022-11-13T00:28:11;4.88;;;3.33;;
6787;SDS011;3431;47.966;10.268;2022-11-13T00:28:53;4.05;;;3.40;;
6787;SDS011;3431;47.966;10.268;2022-11-13T00:29:33;4.72;;;3.75;;
6787;SDS011;3431;47.966;10.268;2022-11-13T00:30:13;4.72;;;3.42;;
6787;SDS011;3431;47.966;10.268;2022-11-13T00:30:58;3.40;;;3.10;;
6787;SDS011;3431;47.966;10.268;2022-11-13T00:31:38;5.17;;;3.37;;
6787;SDS011;3431;47.966;10.268;2022-11-13T00:32:19;3.70;;;3.40;;
6787;SDS011;3431;47.966;10.268;2022-11-13T00:32:59;4.80;;;3.45;;
6787;SDS011;3431;47.966;10.268;2022-11-13T00:33:40;3.95;;;3.45;;
6787;SDS011;3431;47.966;10.268;2022-11-13T00:34:21;3.72;;;3.33;;
6787;SDS011;3431;47.966;10.268;2022-11-13T00:35:01;3.50;;;3.20;;
6787;SDS011;3431;47.966;10.268;2022-11-13T00:35:42;3.80;;;3.40;;
6787;SDS011;3431;47.966;10.268;2022-11-13T00:36:22;4.70;;;3.30;;
6787;SDS011;3431;47.966;10.268;2022-11-13T00:37:05;3.50;;;3.13;;
6787;SDS011;3431;47.966;10.268;2022-11-13T00:37:45;3.80;;;3.40;;
6787;SDS011;3431;47.966;10.268;2022-11-13T00:38:26;6.90;;;3.70;;
6787;SDS011;3431;47.966;10.268;2022-11-13T00:39:07;7.05;;;3.60;;
6787;SDS011;3431;47.966;10.268;2022-11-13T00:39:47;7.82;;;3.40;;
6787;SDS011;3431;47.966;10.268;2022-11-13T00:40:28;6.00;;;3.30;;
6787;SDS011;3431;47.966;10.268;2022-11-13T00:41:09;5.22;;;3.38;;
6787;SDS011;3431;47.966;10.268;2022-11-13T00:41:49;6.07;;;3.78;;
6787;SDS011;3431;47.966;10.268;2022-11-13T00:42:30;4.30;;;3.67;;
6787;SDS011;3431;47.966;10.268;2022-11-13T00:43:10;5.53;;;3.75;;
6787;SDS011;3431;47.966;10.268;2022-11-13T00:43:50;5.32;;;3.80;;
6787;SDS011;3431;47.966;10.268;2022-11-13T00:44:32;5.28;;;3.55;;
6787;SDS011;3431;47.966;10.268;2022-11-13T00:45:12;4.20;;;3.35;;
6787;SDS011;3431;47.966;10.268;2022-11-13T00:45:52;3.83;;;3.50;;
6787;SDS011;3431;47.966;10.268;2022-11-13T00:46:35;6.43;;;3.28;;
6787;SDS011;3431;47.966;10.268;2022-11-13T00:47:15;4.18;;;3.50;;
6787;SDS011;3431;47.966;10.268;2022-11-13T00:47:56;5.53;;;3.60;;
6787;SDS011;3431;47.966;10.268;2022-11-13T00:48:36;6.35;;;3.72;;
6787;SDS011;3431;47.966;10.268;2022-11-13T00:49:17;5.40;;;3.70;;
6787;SDS011;3431;47.966;10.268;2022-11-13T00:49:58;4.65;;;3.75;;
6787;SDS011;3431;47.966;10.268;2022-11-13T00:50:38;3.70;;;3.30;;
6787;SDS011;3431;47.966;10.268;2022-11-13T00:51:18;5.45;;;3.28;;
6787;SDS011;3431;47.966;10.268;2022-11-13T00:51:59;3.85;;;3.40;;
6787;SDS011;3431;47.966;10.268;2022-11-13T00:52:41;4.63;;;3.20;;
6787;SDS011;3431;47.966;10.268;2022-11-13T00:53:22;5.32;;;3.40;;
6787;SDS011;3431;47.966;10.268;2022-11-13T00:54:03;7.45;;;3.40;;
6787;SDS011;3431;47.966;10.268;2022-11-13T00:54:44;7.05;;;3.80;;
6787;SDS011;3431;47.966;10.268;2022-11-13T00:55:24;6.95;;;3.40;;
6787;SDS011;3431;47.966;10.268;2022-11-13T00:56:05;4.32;;;3.38;;
6787;SDS011;3431;47.966;10.268;2022-11-13T00:56:46;3.58;;;3.28;;
6787;SDS011;3431;47.966;10.268;2022-11-13T00:57:26;6.03;;;3.50;;
6787;SDS011;3431;47.966;10.268;2022-11-13T00:58:07;7.20;;;3.60;;
6787;SDS011;3431;47.966;10.268;2022-11-13T00:58:47;5.38;;;3.30;;
6787;SDS011;3431;47.966;10.268;2022-11-13T00:59:28;5.30;;;3.70;;
6787;SDS011;3431;47.966;10.268;2022-11-13T01:00:09;5.13;;;3.13;;
6787;SDS011;3431;47.966;10.268;2022-11-13T01:00:51;3.53;;;3.22;;
6787;SDS011;3431;47.966;10.268;2022-11-13T01:01:31;3.85;;;3.22;;
6787;SDS011;3431;47.966;10.268;2022-11-13T01:02:13;4.28;;;3.25;;
6787;SDS011;3431;47.966;10.268;2022-11-13T01:02:54;3.78;;;3.33;;
6787;SDS011;3431;47.966;10.268;2022-11-13T01:03:34;6.55;;;3.85;;
6787;SDS011;3431;47.966;10.268;2022-11-13T01:04:15;4.93;;;3.70;;
6787;SDS011;3431;47.966;10.268;2022-11-13T01:04:55;3.78;;;3.42;;
6787;SDS011;3431;47.966;10.268;2022-11-13T01:05:35;3.47;;;3.17;;
6787;SDS011;3431;47.966;10.268;2022-11-13T01:06:17;3.65;;;3.35;;
6787;SDS011;3431;47.966;10.268;2022-11-13T01:06:59;3.67;;;3.38;;
6787;SDS011;3431;47.966;10.268;2022-11-13T01:07:40;5.93;;;3.35;;
6787;SDS011;3431;47.966;10.268;2022-11-13T01:08:20;7.68;;;3.22;;
6787;SDS011;3431;47.966;10.268;2022-11-13T01:09:00;5.93;;;3.33;;
6787;SDS011;3431;47.966;10.268;2022-11-13T01:09:40;5.40;;;3.42;;
6787;SDS011;3431;47.966;10.268;2022-11-13T01:10:21;4.72;;;3.05;;
6787;SDS011;3431;47.966;10.268;2022-11-13T01:11:06;3.72;;;3.33;;
6787;SDS011;3431;47.966;10.268;2022-11-13T01:11:47;6.38;;;3.35;;
6787;SDS011;3431;47.966;10.268;2022-11-13T01:12:28;7.60;;;3.67;;
6787;SDS011;3431;47.966;10.268;2022-11-13T01:13:09;3.67;;;3.38;;
6787;SDS011;3431;47.966;10.268;2022-11-13T01:13:50;3.72;;;3.40;;
6787;SDS011;3431;47.966;10.268;2022-11-13T01:14:32;3.58;;;3.10;;
6787;SDS011;3431;47.966;10.268;2022-11-13T01:15:12;4.45;;;3.30;;
6787;SDS011;3431;47.966;10.268;2022-11-13T01:15:53;3.63;;;3.33;;
6787;SDS011;3431;47.966;10.268;2022-11-13T01:16:33;4.50;;;3.10;;
6787;SDS011;3431;47.966;10.268;2022-11-13T01:17:15;4.20;;;3.15;;
6787;SDS011;3431;47.966;10.268;2022-11-13T01:17:55;5.05;;;3.22;;
6787;SDS011;3431;47.966;10.268;2022-11-13T01:18:37;4.78;;;2.88;;
6787;SDS011;3431;47.966;10.268;2022-11-13T01:19:17;3.33;;;3.03;;
6787;SDS011;3431;47.966;10.268;2022-11-13T01:19:58;3.45;;;3.15;;
6787;SDS011;3431;47.966;10.268;2022-11-13T01:20:38;3.23;;;2.90;;
6787;SDS011;3431;47.966;10.268;2022-11-13T01:21:19;3.60;;;3.30;;
6787;SDS011;3431;47.966;10.268;2022-11-13T01:22:02;5.25;;;3.42;;
6787;SDS011;3431;47.966;10.268;2022-11-13T01:22:42;4.85;;;3.25;;
6787;SDS011;3431;47.966;10.268;2022-11-13T01:23:23;4.50;;;3.65;;
6787;SDS011;3431;47.966;10.268;2022-11-13T01:24:03;3.53;;;3.05;;
6787;SDS011;3431;47.966;10.268;2022-11-13T01:24:44;3.30;;;3.03;;
6787;SDS011;3431;47.966;10.268;2022-11-13T01:25:24;4.05;;;3.10;;
6787;SDS011;3431;47.966;10.268;2022-11-13T01:26:08;3.55;;;3.25;;
6787;SDS011;3431;47.966;10.268;2022-11-13T01:26:50;4.45;;;3.00;;
6787;SDS011;3431;47.966;10.268;2022-11-13T01:27:31;5.27;;;3.23;;
6787;SDS011;3431;47.966;10.268;2022-11-13T01:28:13;4.28;;;3.17;;
6787;SDS011;3431;47.966;10.268;2022-11-13T01:28:54;3.33;;;3.03;;
6787;SDS011;3431;47.966;10.268;2022-11-13T01:29:36;3.78;;;2.90;;
6787;SDS011;3431;47.966;10.268;2022-11-13T01:30:16;3.13;;;2.80;;
6787;SDS011;3431;47.966;10.268;2022-11-13T01:30:56;3.50;;;3.20;;
6787;SDS011;3431;47.966;10.268;2022-11-13T01:31:37;4.22;;;3.10;;
6787;SDS011;3431;47.966;10.268;2022-11-13T01:32:19;3.50;;;3.20;;
6787;SDS011;3431;47.966;10.268;2022-11-13T01:33:00;4.80;;;3.35;;
6787;SDS011;3431;47.966;10.268;2022-11-13T01:33:40;4.03;;;3.25;;
6787;SDS011;3431;47.966;10.268;2022-11-13T01:34:21;3.53;;;3.15;;
6787;SDS011;3431;47.966;10.268;2022-11-13T01:35:02;3.45;;;3.15;;
6787;SDS011;3431;47.966;10.268;2022-11-13T01:35:43;3.20;;;2.90;;
6787;SDS011;3431;47.966;10.268;2022-11-13T01:36:24;5.07;;;2.83;;
6787;SDS011;3431;47.966;10.268;2022-11-13T01:37:07;3.40;;;3.10;;
6787;SDS011;3431;47.966;10.268;2022-11-13T01:37:46;6.43;;;3.13;;
6787;SDS011;3431;47.966;10.268;2022-11-13T01:38:27;4.03;;;3.03;;
6787;SDS011;3431;47.966;10.268;2022-11-13T01:39:08;5.18;;;3.20;;
6787;SDS011;3431;47.966;10.268;2022-11-13T01:39:49;3.45;;;3.15;;
6787;SDS011;3431;47.966;10.268;2022-11-13T01:40:30;4.45;;;3.28;;
6787;SDS011;3431;47.966;10.268;2022-11-13T01:41:11;3.65;;;3.35;;
6787;SDS011;3431;47.966;10.268;2022-11-13T01:41:55;4.77;;;3.07;;
6787;SDS011;3431;47.966;10.268;2022-11-13T01:42:36;4.50;;;3.00;;
6787;SDS011;3431;47.966;10.268;2022-11-13T01:43:19;4.13;;;3.30;;
6787;SDS011;3431;47.966;10.268;2022-11-13T01:44:03;3.30;;;3.00;;
6787;SDS011;3431;47.966;10.268;2022-11-13T01:44:47;4.18;;;3.10;;
6787;SDS011;3431;47.966;10.268;2022-11-13T01:45:48;5.30;;;3.70;;
6787;SDS011;3431;47.966;10.268;2022-11-13T01:46:48;3.67;;;3.38;;
6787;SDS011;3431;47.966;10.268;2022-11-13T01:47:32;3.72;;;3.10;;
6787;SDS011;3431;47.966;10.268;2022-11-13T01:48:13;3.50;;;3.20;;
6787;SDS011;3431;47.966;10.268;2022-11-13T01:48:56;3.50;;;3.20;;
6787;SDS011;3431;47.966;10.268;2022-11-13T01:49:40;3.40;;;3.10;;
6787;SDS011;3431;47.966;10.268;2022-11-13T01:50:22;3.58;;;3.28;;
6787;SDS011;3431;47.966;10.268;2022-11-13T01:51:02;3.33;;;3.13;;
6787;SDS011;3431;47.966;10.268;2022-11-13T01:51:48;3.60;;;3.30;;
6787;SDS011;3431;47.966;10.268;2022-11-13T01:52:34;3.78;;;3.05;;
6787;SDS011;3431;47.966;10.268;2022-11-13T01:53:17;3.53;;;3.23;;
6787;SDS011;3431;47.966;10.268;2022-11-13T01:53:58;3.20;;;2.92;;
6787;SDS011;3431;47.966;10.268;2022-11-13T01:54:43;3.92;;;3.63;;
6787;SDS011;3431;47.966;10.268;2022-11-13T01:55:26;3.30;;;3.03;;
6787;SDS011;3431;47.966;10.268;2022-11-13T01:56:06;3.67;;;2.90;;
6787;SDS011;3431;47.966;10.268;2022-11-13T01:56:47;3.40;;;3.10;;
6787;SDS011;3431;47.966;10.268;2022-11-13T01:57:28;3.40;;;3.10;;
6787;SDS011;3431;47.966;10.268;2022-11-13T01:58:09;3.40;;;3.10;;
6787;SDS011;3431;47.966;10.268;2022-11-13T01:58:53;4.28;;;3.10;;
6787;SDS011;3431;47.966;10.268;2022-11-13T01:59:37;3.40;;;3.10;;
6787;SDS011;3431;47.966;10.268;2022-11-13T02:00:20;3.30;;;3.10;;
6787;SDS011;3431;47.966;10.268;2022-11-13T02:01:00;3.63;;;3.33;;
6787;SDS011;3431;47.966;10.268;2022-11-13T02:01:41;3.22;;;2.92;;
6787;SDS011;3431;47.966;10.268;2022-11-13T02:02:22;3.67;;;3.35;;
6787;SDS011;3431;47.966;10.268;2022-11-13T02:03:03;3.85;;;3.13;;
6787;SDS011;3431;47.966;10.268;2022-11-13T02:03:44;3.50;;;3.20;;
6787;SDS011;3431;47.966;10.268;2022-11-13T02:04:24;3.35;;;3.05;;
6787;SDS011;3431;47.966;10.268;2022-11-13T02:05:07;3.50;;;3.20;;
6787;SDS011;3431;47.966;10.268;2022-11-13T02:05:47;3.42;;;3.13;;
6787;SDS011;3431;47.966;10.268;2022-11-13T02:06:30;3.75;;;3.45;;
6787;SDS011;3431;47.966;10.268;2022-11-13T02:07:15;3.72;;;3.33;;
6787;SDS011;3431;47.966;10.268;2022-11-13T02:07:58;3.30;;;3.10;;
6787;SDS011;3431;47.966;10.268;2022-11-13T02:08:40;3.30;;;3.00;;
6787;SDS011;3431;47.966;10.268;2022-11-13T02:09:21;3.83;;;3.20;;
6787;SDS011;3431;47.966;10.268;2022-11-13T02:10:06;3.42;;;3.13;;
6787;SDS011;3431;47.966;10.268;2022-11-13T02:10:47;4.10;;;3.03;;
6787;SDS011;3431;47.966;10.268;2022-11-13T02:11:28;3.78;;;3.10;;
6787;SDS011;3431;47.966;10.268;2022-11-13T02:12:09;3.42;;;2.92;;
6787;SDS011;3431;47.966;10.268;2022-11-13T02:12:51;3.25;;;3.05;;
6787;SDS011;3431;47.966;10.268;2022-11-13T02:13:31;7.95;;;3.63;;
6787;SDS011;3431;47.966;10.268;2022-11-13T02:14:13;3.63;;;3.33;;
6787;SDS011;3431;47.966;10.268;2022-11-13T02:14:55;3.28;;;3.00;;
6787;SDS011;3431;47.966;10.268;2022-11-13T02:15:37;3.33;;;3.03;;
6787;SDS011;3431;47.966;10.268;2022-11-13T02:16:20;3.38;;;3.08;;
6787;SDS011;3431;47.966;10.268;2022-11-13T02:17:02;3.45;;;3.15;;
6787;SDS011;3431;47.966;10.268;2022-11-13T02:17:49;3.30;;;3.00;;
6787;SDS011;3431;47.966;10.268;2022-11-13T02:18:35;3.20;;;3.00;;
6787;SDS011;3431;47.966;10.268;2022-11-13T02:19:18;3.20;;;3.00;;
6787;SDS011;3431;47.966;10.268;2022-11-13T02:20:05;3.20;;;2.90;;
6787;SDS011;3431;47.966;10.268;2022-11-13T02:20:48;3.30;;;3.10;;
6787;SDS011;3431;47.966;10.268;2022-11-13T02:21:35;3.47;;;2.80;;
6787;SDS011;3431;47.966;10.268;2022-11-13T02:22:23;3.13;;;2.83;;
6787;SDS011;3431;47.966;10.268;2022-11-13T02:23:11;3.35;;;3.05;;
6787;SDS011;3431;47.966;10.268;2022-11-13T02:23:58;3.40;;;3.10;;
6787;SDS011;3431;47.966;10.268;2022-11-13T02:24:44;3.30;;;3.10;;
6787;SDS011;3431;47.966;10.268;2022-11-13T02:25:27;3.05;;;2.80;;
6787;SDS011;3431;47.966;10.268;2022-11-13T02:26:10;4.40;;;2.88;;
6787;SDS011;3431;47.966;10.268;2022-11-13T02:26:51;3.10;;;2.80;;
6787;SDS011;3431;47.966;10.268;2022-11-13T02:27:35;3.30;;;3.00;;
6787;SDS011;3431;47.966;10.268;2022-11-13T02:28:18;3.10;;;2.90;;
6787;SDS011;3431;47.966;10.268;2022-11-13T02:28:59;3.00;;;2.80;;
6787;SDS011;3431;47.966;10.268;2022-11-13T02:29:39;3.45;;;3.15;;
6787;SDS011;3431;47.966;10.268;2022-11-13T02:30:21;3.50;;;2.95;;
6787;SDS011;3431;47.966;10.268;2022-11-13T02:31:07;3.08;;;2.88;;
6787;SDS011;3431;47.966;10.268;2022-11-13T02:31:49;3.40;;;3.10;;
6787;SDS011;3431;47.966;10.268;2022-11-13T02:32:29;3.15;;;2.85;;
6787;SDS011;3431;47.966;10.268;2022-11-13T02:33:20;5.22;;;3.13;;
6787;SDS011;3431;47.966;10.268;2022-11-13T02:34:03;3.33;;;3.03;;
6787;SDS011;3431;47.966;10.268;2022-11-13T02:34:43;3.03;;;2.83;;
6787;SDS011;3431;47.966;10.268;2022-11-13T02:35:24;3.20;;;3.00;;
6787;SDS011;3431;47.966;10.268;2022-11-13T02:36:07;3.22;;;2.92;;
6787;SDS011;3431;47.966;10.268;2022-11-13T02:36:50;3.65;;;3.30;;
6787;SDS011;3431;47.966;10.268;2022-11-13T02:37:30;3.40;;;3.10;;
6787;SDS011;3431;47.966;10.268;2022-11-13T02:38:11;3.67;;;3.10;;
6787;SDS011;3431;47.966;10.268;2022-11-13T02:38:51;3.42;;;3.13;;
6787;SDS011;3431;47.966;10.268;2022-11-13T02:39:32;3.75;;;2.90;;
6787;SDS011;3431;47.966;10.268;2022-11-13T02:40:15;5.07;;;3.15;;
6787;SDS011;3431;47.966;10.268;2022-11-13T02:40:55;3.40;;;3.10;;
6787;SDS011;3431;47.966;10.268;2022-11-13T02:41:35;3.60;;;3.30;;
6787;SDS011;3431;47.966;10.268;2022-11-13T02:42:17;3.58;;;3.28;;
6787;SDS011;3431;47.966;10.268;2022-11-13T02:42:57;3.70;;;3.40;;
6787;SDS011;3431;47.966;10.268;2022-11-13T02:43:38;3.40;;;3.10;;
6787;SDS011;3431;47.966;10.268;2022-11-13T02:44:18;3.65;;;3.35;;
6787;SDS011;3431;47.966;10.268;2022-11-13T02:44:59;3.58;;;3.28;;
6787;SDS011;3431;47.966;10.268;2022-11-13T02:45:39;4.18;;;2.90;;
6787;SDS011;3431;47.966;10.268;2022-11-13T02:46:19;3.40;;;3.10;;
6787;SDS011;3431;47.966;10.268;2022-11-13T02:47:00;3.50;;;3.20;;
6787;SDS011;3431;47.966;10.268;2022-11-13T02:47:40;3.50;;;3.20;;
6787;SDS011;3431;47.966;10.268;2022-11-13T02:48:22;3.78;;;3.30;;
6787;SDS011;3431;47.966;10.268;2022-11-13T02:49:02;3.55;;;3.25;;
6787;SDS011;3431;47.966;10.268;2022-11-13T02:49:43;4.57;;;3.20;;
6787;SDS011;3431;47.966;10.268;2022-11-13T02:50:23;3.93;;;3.20;;
6787;SDS011;3431;47.966;10.268;2022-11-13T02:51:03;3.70;;;3.40;;
6787;SDS011;3431;47.966;10.268;2022-11-13T02:51:44;6.43;;;3.33;;
6787;SDS011;3431;47.966;10.268;2022-11-13T02:52:25;4.47;;;3.33;;
6787;SDS011;3431;47.966;10.268;2022-11-13T02:53:05;3.47;;;3.17;;
6787;SDS011;3431;47.966;10.268;2022-11-13T02:53:47;5.15;;;3.33;;
6787;SDS011;3431;47.966;10.268;2022-11-13T02:54:27;3.25;;;2.95;;
6787;SDS011;3431;47.966;10.268;2022-11-13T02:55:08;3.42;;;3.13;;
6787;SDS011;3431;47.966;10.268;2022-11-13T02:55:49;4.65;;;3.50;;
6787;SDS011;3431;47.966;10.268;2022-11-13T02:56:30;3.80;;;3.50;;
6787;SDS011;3431;47.966;10.268;2022-11-13T02:57:11;3.33;;;3.03;;
6787;SDS011;3431;47.966;10.268;2022-11-13T02:57:51;3.85;;;3.20;;
6787;SDS011;3431;47.966;10.268;2022-11-13T02:58:31;3.38;;;3.10;;
6787;SDS011;3431;47.966;10.268;2022-11-13T02:59:12;3.60;;;3.30;;
6787;SDS011;3431;47.966;10.268;2022-11-13T02:59:52;3.50;;;3.20;;
6787;SDS011;3431;47.966;10.268;2022-11-13T03:00:32;3.20;;;3.00;;
6787;SDS011;3431;47.966;10.268;2022-11-13T03:01:13;3.95;;;3.15;;
6787;SDS011;3431;47.966;10.268;2022-11-13T03:01:53;3.63;;;3.33;;
6787;SDS011;3431;47.966;10.268;2022-11-13T03:02:33;3.50;;;3.20;;
6787;SDS011;3431;47.966;10.268;2022-11-13T03:03:14;3.30;;;3.10;;
6787;SDS011;3431;47.966;10.268;2022-11-13T03:03:55;3.53;;;3.22;;
6787;SDS011;3431;47.966;10.268;2022-11-13T03:04:36;3.43;;;3.13;;
6787;SDS011;3431;47.966;10.268;2022-11-13T03:05:16;3.28;;;3.08;;
6787;SDS011;3431;47.966;10.268;2022-11-13T03:05:58;3.50;;;3.20;;
6787;SDS011;3431;47.966;10.268;2022-11-13T03:06:38;3.58;;;3.28;;
6787;SDS011;3431;47.966;10.268;2022-11-13T03:07:18;3.40;;;3.10;;
6787;SDS011;3431;47.966;10.268;2022-11-13T03:07:59;3.40;;;3.10;;
6787;SDS011;3431;47.966;10.268;2022-11-13T03:08:39;3.70;;;3.40;;
6787;SDS011;3431;47.966;10.268;2022-11-13T03:09:19;3.55;;;3.25;;
6787;SDS011;3431;47.966;10.268;2022-11-13T03:10:01;3.60;;;3.20;;
6787;SDS011;3431;47.966;10.268;2022-11-13T03:10:41;3.40;;;3.10;;
6787;SDS011;3431;47.966;10.268;2022-11-13T03:11:22;3.30;;;3.00;;
6787;SDS011;3431;47.966;10.268;2022-11-13T03:12:03;3.22;;;3.00;;
6787;SDS011;3431;47.966;10.268;2022-11-13T03:12:43;4.25;;;3.28;;
6787;SDS011;3431;47.966;10.268;2022-11-13T03:13:23;3.30;;;3.00;;
6787;SDS011;3431;47.966;10.268;2022-11-13T03:14:05;3.92;;;3.45;;
6787;SDS011;3431;47.966;10.268;2022-11-13T03:14:45;3.70;;;3.40;;
6787;SDS011;3431;47.966;10.268;2022-11-13T03:15:24;3.55;;;3.25;;
6787;SDS011;3431;47.966;10.268;2022-11-13T03:16:07;3.13;;;2.90;;
6787;SDS011;3431;47.966;10.268;2022-11-13T03:16:48;3.78;;;3.33;;
6787;SDS011;3431;47.966;10.268;2022-11-13T03:17:29;3.35;;;3.05;;
6787;SDS011;3431;47.966;10.268;2022-11-13T03:18:09;3.88;;;3.40;;
6787;SDS011;3431;47.966;10.268;2022-11-13T03:18:50;3.88;;;3.47;;
6787;SDS011;3431;47.966;10.268;2022-11-13T03:19:31;3.63;;;3.08;;
6787;SDS011;3431;47.966;10.268;2022-11-13T03:20:10;3.70;;;3.40;;
6787;SDS011;3431;47.966;10.268;2022-11-13T03:20:50;3.67;;;3.38;;
6787;SDS011;3431;47.966;10.268;2022-11-13T03:21:32;3.40;;;3.10;;
6787;SDS011;3431;47.966;10.268;2022-11-13T03:22:12;3.53;;;3.22;;
6787;SDS011;3431;47.966;10.268;2022-11-13T03:22:52;3.20;;;2.90;;
6787;SDS011;3431;47.966;10.268;2022-11-13T03:23:33;3.38;;;3.08;;
6787;SDS011;3431;47.966;10.268;2022-11-13T03:24:13;3.80;;;3.40;;
6787;SDS011;3431;47.966;10.268;2022-11-13T03:24:54;3.53;;;3.30;;
6787;SDS011;3431;47.966;10.268;2022-11-13T03:25:34;4.93;;;3.30;;
6787;SDS011;3431;47.966;10.268;2022-11-13T03:26:14;3.45;;;3.17;;
6787;SDS011;3431;47.966;10.268;2022-11-13T03:26:58;3.88;;;3.58;;
6787;SDS011;3431;47.966;10.268;2022-11-13T03:27:38;3.85;;;3.55;;
6787;SDS011;3431;47.966;10.268;2022-11-13T03:28:19;3.60;;;3.30;;
6787;SDS011;3431;47.966;10.268;2022-11-13T03:28:59;4.40;;;3.60;;
6787;SDS011;3431;47.966;10.268;2022-11-13T03:29:40;3.88;;;3.58;;
6787;SDS011;3431;47.966;10.268;2022-11-13T03:30:20;5.45;;;3.65;;
6787;SDS011;3431;47.966;10.268;2022-11-13T03:31:00;3.95;;;3.22;;
6787;SDS011;3431;47.966;10.268;2022-11-13T03:31:41;3.72;;;3.42;;
6787;SDS011;3431;47.966;10.268;2022-11-13T03:32:21;3.53;;;3.22;;
6787;SDS011;3431;47.966;10.268;2022-11-13T03:33:01;3.92;;;3.63;;
6787;SDS011;3431;47.966;10.268;2022-11-13T03:33:42;3.60;;;3.30;;
6787;SDS011;3431;47.966;10.268;2022-11-13T03:34:22;3.60;;;3.22;;
6787;SDS011;3431;47.966;10.268;2022-11-13T03:35:03;3.70;;;3.40;;
6787;SDS011;3431;47.966;10.268;2022-11-13T03:35:44;4.00;;;3.50;;
6787;SDS011;3431;47.966;10.268;2022-11-13T03:36:26;4.40;;;3.50;;
6787;SDS011;3431;47.966;10.268;2022-11-13T03:37:06;3.47;;;3.17;;
6787;SDS011;3431;47.966;10.268;2022-11-13T03:37:46;5.75;;;3.40;;
6787;SDS011;3431;47.966;10.268;2022-11-13T03:38:26;4.03;;;3.22;;
6787;SDS011;3431;47.966;10.268;2022-11-13T03:39:07;3.47;;;3.17;;
6787;SDS011;3431;47.966;10.268;2022-11-13T03:39:47;3.95;;;3.60;;
6787;SDS011;3431;47.966;10.268;2022-11-13T03:40:28;3.80;;;3.50;;
6787;SDS011;3431;47.966;10.268;2022-11-13T03:41:08;3.88;;;3.58;;
6787;SDS011;3431;47.966;10.268;2022-11-13T03:41:49;3.85;;;3.55;;
6787;SDS011;3431;47.966;10.268;2022-11-13T03:42:30;3.92;;;3.63;;
6787;SDS011;3431;47.966;10.268;2022-11-13T03:43:12;3.58;;;3.28;;
6787;SDS011;3431;47.966;10.268;2022-11-13T03:43:53;4.10;;;3.47;;
6787;SDS011;3431;47.966;10.268;2022-11-13T03:44:33;4.30;;;3.90;;
6787;SDS011;3431;47.966;10.268;2022-11-13T03:45:14;5.40;;;3.75;;
6787;SDS011;3431;47.966;10.268;2022-11-13T03:45:54;4.13;;;3.83;;
6787;SDS011;3431;47.966;10.268;2022-11-13T03:46:34;4.45;;;3.70;;
6787;SDS011;3431;47.966;10.268;2022-11-13T03:47:15;4.35;;;3.95;;
6787;SDS011;3431;47.966;10.268;2022-11-13T03:47:55;4.05;;;3.53;;
6787;SDS011;3431;47.966;10.268;2022-11-13T03:48:35;4.20;;;3.80;;
6787;SDS011;3431;47.966;10.268;2022-11-13T03:49:16;3.93;;;3.63;;
6787;SDS011;3431;47.966;10.268;2022-11-13T03:49:56;4.32;;;3.90;;
6787;SDS011;3431;47.966;10.268;2022-11-13T03:50:36;4.07;;;3.67;;
6787;SDS011;3431;47.966;10.268;2022-11-13T03:51:18;4.50;;;4.07;;
6787;SDS011;3431;47.966;10.268;2022-11-13T03:51:58;4.10;;;3.70;;
6787;SDS011;3431;47.966;10.268;2022-11-13T03:52:38;4.18;;;3.88;;
6787;SDS011;3431;47.966;10.268;2022-11-13T03:53:19;6.80;;;3.67;;
6787;SDS011;3431;47.966;10.268;2022-11-13T03:53:59;4.25;;;3.85;;
6787;SDS011;3431;47.966;10.268;2022-11-13T03:54:39;4.45;;;3.78;;
6787;SDS011;3431;47.966;10.268;2022-11-13T03:55:20;4.32;;;3.92;;
6787;SDS011;3431;47.966;10.268;2022-11-13T03:56:00;4.18;;;3.70;;
6787;SDS011;3431;47.966;10.268;2022-11-13T03:56:41;4.90;;;3.92;;
6787;SDS011;3431;47.966;10.268;2022-11-13T03:57:21;3.80;;;3.50;;
6787;SDS011;3431;47.966;10.268;2022-11-13T03:58:02;4.80;;;3.55;;
6787;SDS011;3431;47.966;10.268;2022-11-13T03:58:44;4.38;;;3.97;;
6787;SDS011;3431;47.966;10.268;2022-11-13T03:59:24;4.00;;;3.70;;
6787;SDS011;3431;47.966;10.268;2022-11-13T04:00:04;4.10;;;3.70;;
6787;SDS011;3431;47.966;10.268;2022-11-13T04:00:47;4.45;;;3.63;;
6787;SDS011;3431;47.966;10.268;2022-11-13T04:01:29;4.13;;;3.72;;
6787;SDS011;3431;47.966;10.268;2022-11-13T04:02:09;4.00;;;3.70;;
6787;SDS011;3431;47.966;10.268;2022-11-13T04:02:48;4.05;;;3.55;;
6787;SDS011;3431;47.966;10.268;2022-11-13T04:03:29;4.10;;;3.80;;
6787;SDS011;3431;47.966;10.268;2022-11-13T04:04:09;4.03;;;3.72;;
6787;SDS011;3431;47.966;10.268;2022-11-13T04:04:49;4.30;;;3.90;;
6787;SDS011;3431;47.966;10.268;2022-11-13T04:05:30;4.22;;;3.70;;
6787;SDS011;3431;47.966;10.268;2022-11-13T04:06:10;4.00;;;3.70;;
6787;SDS011;3431;47.966;10.268;2022-11-13T04:06:52;4.00;;;3.70;;
6787;SDS011;3431;47.966;10.268;2022-11-13T04:07:33;4.40;;;4.05;;
6787;SDS011;3431;47.966;10.268;2022-11-13T04:08:13;3.97;;;3.63;;
6787;SDS011;3431;47.966;10.268;2022-11-13T04:08:55;4.25;;;3.85;;
6787;SDS011;3431;47.966;10.268;2022-11-13T04:09:35;4.00;;;3.60;;
6787;SDS011;3431;47.966;10.268;2022-11-13T04:10:16;5.68;;;4.00;;
6787;SDS011;3431;47.966;10.268;2022-11-13T04:11:04;4.70;;;3.70;;
6787;SDS011;3431;47.966;10.268;2022-11-13T04:11:44;4.05;;;3.63;;
6787;SDS011;3431;47.966;10.268;2022-11-13T04:12:25;4.03;;;3.67;;